Time;durP1;ratioP1;P1;durP2;ratioP2;P2;SDS_P1;SDS_P2;PMS_P1;PMS_P2;Temp;Humidity;BMP_temperature;BMP_pressure;BME280_temperature;BME280_humidity;BME280_pressure;Samples;Min_cycle;Max_cycle;Signal;HPM_P1;HPM_P2
2022/07/10 00:02:31;;;;;;;7.00;2.00;;;;;;;19.35;47.01;102860.34;5216339;28;20431;-39
2022/07/10 00:05:04;;;;;;;6.97;1.77;;;;;;;19.33;46.58;102845.44;5214680;28;20787;-43
2022/07/10 00:07:37;;;;;;;7.83;1.90;;;;;;;19.38;46.74;102853.81;5215453;28;20412;-37
2022/07/10 00:10:11;;;;;;;5.22;1.30;;;;;;;19.39;46.59;102843.94;5215617;28;20408;-40
2022/07/10 00:12:44;;;;;;;4.53;1.20;;;;;;;19.32;46.77;102860.66;5211166;28;20410;-36
2022/07/10 00:15:18;;;;;;;5.15;1.70;;;;;;;19.37;46.73;102851.31;5216549;28;20970;-38
2022/07/10 00:17:51;;;;;;;12.15;2.53;;;;;;;19.32;46.70;102843.72;5215267;28;20492;-36
2022/07/10 00:20:24;;;;;;;4.78;1.52;;;;;;;19.32;46.76;102844.59;5211911;28;20415;-36
2022/07/10 00:22:57;;;;;;;6.03;1.90;;;;;;;19.26;46.81;102839.88;5213177;28;20921;-36
2022/07/10 00:25:32;;;;;;;6.53;1.73;;;;;;;19.23;46.79;102850.91;5213144;28;20432;-37
2022/07/10 00:28:05;;;;;;;4.72;2.00;;;;;;;19.23;47.20;102850.91;5201230;28;20417;-37
2022/07/10 00:30:38;;;;;;;5.70;1.58;;;;;;;19.18;47.30;102852.38;5208178;28;20431;-36
2022/07/10 00:33:10;;;;;;;8.73;2.17;;;;;;;19.06;47.22;102843.75;5206753;28;20433;-41
2022/07/10 00:35:43;;;;;;;9.55;2.08;;;;;;;18.89;47.37;102818.66;5210526;28;20433;-37
2022/07/10 00:38:16;;;;;;;5.97;1.73;;;;;;;18.99;47.53;102837.34;5210841;28;20939;-38
2022/07/10 00:40:50;;;;;;;11.23;2.65;;;;;;;19.06;47.55;102847.25;5210845;28;20428;-37
2022/07/10 00:43:23;;;;;;;4.82;1.83;;;;;;;19.05;47.48;102837.56;5209694;28;20443;-38
2022/07/10 00:45:56;;;;;;;8.15;2.17;;;;;;;18.93;47.69;102832.63;5208050;28;20420;-37
2022/07/10 00:48:28;;;;;;;10.32;1.85;;;;;;;18.98;47.88;102847.19;5184586;28;20415;-37
2022/07/10 00:51:01;;;;;;;7.72;2.40;;;;;;;18.91;48.07;102845.31;5208335;28;20420;-38
2022/07/10 00:53:34;;;;;;;7.15;1.73;;;;;;;18.88;48.11;102839.25;5211643;28;20415;-37
2022/07/10 00:56:10;;;;;;;7.23;2.37;;;;;;;18.91;48.12;102846.13;5212780;27;22039;-36
2022/07/10 00:58:45;;;;;;;11.13;2.35;;;;;;;18.77;48.21;102825.31;5215639;28;20407;-36
2022/07/10 01:01:18;;;;;;;6.10;1.95;;;;;;;18.83;48.26;102838.91;5222063;28;20422;-37
2022/07/10 01:03:52;;;;;;;5.65;1.80;;;;;;;18.67;48.31;102819.97;5215220;28;20467;-37
2022/07/10 01:06:24;;;;;;;8.23;2.40;;;;;;;18.73;48.37;102832.78;5198738;28;20534;-37
2022/07/10 01:08:57;;;;;;;9.68;2.20;;;;;;;18.71;48.50;102829.41;5205508;28;20438;-36
2022/07/10 01:11:34;;;;;;;12.85;2.40;;;;;;;18.68;48.57;102835.06;5215523;28;20512;-36
2022/07/10 01:14:07;;;;;;;5.43;2.25;;;;;;;18.60;48.68;102821.59;5219435;28;20601;-37
2022/07/10 01:16:40;;;;;;;12.68;1.90;;;;;;;18.59;48.79;102828.78;5214848;28;20924;-39
2022/07/10 01:19:13;;;;;;;7.37;1.80;;;;;;;18.57;48.69;102824.59;5206229;28;20488;-37
2022/07/10 01:21:47;;;;;;;8.32;2.30;;;;;;;18.40;48.98;102804.88;5210772;28;20444;-43
2022/07/10 01:24:19;;;;;;;8.27;2.28;;;;;;;18.43;48.97;102810.75;5209049;28;20467;-37
2022/07/10 01:26:53;;;;;;;6.70;1.77;;;;;;;18.47;49.08;102816.66;5211637;28;20429;-37
2022/07/10 01:29:26;;;;;;;7.85;1.80;;;;;;;18.40;49.26;102819.09;5208424;28;20510;-36
2022/07/10 01:32:00;;;;;;;8.10;2.00;;;;;;;18.37;49.42;102815.91;5197317;28;20422;-36
2022/07/10 01:34:33;;;;;;;8.45;1.85;;;;;;;18.34;49.29;102814.38;5199039;28;20871;-37
2022/07/10 01:37:07;;;;;;;7.03;2.15;;;;;;;18.00;49.66;102757.19;5211418;28;20425;-44
2022/07/10 01:39:40;;;;;;;11.23;2.53;;;;;;;18.31;49.40;102817.34;5215048;28;20407;-37
2022/07/10 01:42:13;;;;;;;8.50;2.23;;;;;;;17.79;49.63;102736.94;5213970;28;20814;-36
2022/07/10 01:44:46;;;;;;;9.93;2.60;;;;;;;18.33;49.69;102803.78;5216090;28;21014;-37
2022/07/10 01:47:18;;;;;;;7.57;2.05;;;;;;;18.31;49.64;102800.47;5217830;28;20444;-37
2022/07/10 01:49:52;;;;;;;8.73;2.40;;;;;;;18.37;49.75;102800.69;5210651;28;20431;-36
2022/07/10 01:52:26;;;;;;;6.50;1.92;;;;;;;18.28;49.71;102784.72;5212276;28;20428;-40
2022/07/10 01:54:59;;;;;;;8.82;2.13;;;;;;;18.29;49.75;102771.16;5212039;28;20872;-37
2022/07/10 01:57:32;;;;;;;10.55;2.10;;;;;;;18.22;49.70;102747.88;5214179;28;20891;-37
2022/07/10 02:00:07;;;;;;;7.28;2.25;;;;;;;18.03;49.93;102735.50;5214543;28;20409;-37
2022/07/10 02:02:40;;;;;;;3.90;1.60;;;;;;;18.37;49.90;102776.59;5217755;28;20466;-46
2022/07/10 02:05:12;;;;;;;5.32;1.85;;;;;;;18.42;49.91;102784.16;5216012;28;20419;-36
2022/07/10 02:07:46;;;;;;;8.38;1.55;;;;;;;18.43;49.93;102778.66;5212408;28;20416;-40
2022/07/10 02:10:19;;;;;;;9.60;1.80;;;;;;;18.44;49.86;102785.69;5217668;28;20399;-39
2022/07/10 02:12:51;;;;;;;7.75;2.40;;;;;;;18.19;49.80;102739.16;5210272;28;20411;-45
2022/07/10 02:15:24;;;;;;;8.17;1.87;;;;;;;18.44;49.82;102779.50;5214170;28;20830;-37
2022/07/10 02:17:57;;;;;;;9.40;2.17;;;;;;;18.43;49.95;102784.00;5212486;28;20725;-37
2022/07/10 02:20:32;;;;;;;6.72;1.67;;;;;;;18.34;49.98;102770.72;5207186;28;20484;-43
2022/07/10 02:23:07;;;;;;;7.88;1.95;;;;;;;18.42;49.90;102782.31;5218386;27;20436;-36
2022/07/10 02:25:39;;;;;;;6.43;1.83;;;;;;;18.40;49.85;102767.44;5218519;28;20419;-37
2022/07/10 02:28:12;;;;;;;8.90;2.10;;;;;;;18.38;49.66;102761.38;5211588;28;20901;-38
2022/07/10 02:30:45;;;;;;;11.18;2.15;;;;;;;18.42;49.87;102768.94;5217394;28;20626;-38
2022/07/10 02:33:18;;;;;;;7.20;2.00;;;;;;;18.42;49.85;102771.59;5220448;28;20494;-37
2022/07/10 02:35:50;;;;;;;6.88;1.95;;;;;;;18.51;49.85;102779.72;5221496;28;20816;-37
2022/07/10 02:38:25;;;;;;;8.00;1.92;;;;;;;18.44;49.88;102771.47;5218219;28;20840;-36
2022/07/10 02:40:57;;;;;;;8.27;2.05;;;;;;;18.53;49.74;102772.38;5215713;28;20506;-39
2022/07/10 02:43:30;;;;;;;9.93;2.03;;;;;;;18.17;50.09;102724.25;5214886;28;20537;-38
2022/07/10 02:46:03;;;;;;;7.30;2.10;;;;;;;18.44;49.88;102764.28;5218963;28;20494;-37
2022/07/10 02:48:36;;;;;;;13.35;2.60;;;;;;;18.53;49.82;102769.72;5210696;28;21363;-38
2022/07/10 02:51:08;;;;;;;5.72;1.75;;;;;;;18.55;49.78;102778.41;5210427;28;20784;-38
2022/07/10 02:53:43;;;;;;;13.35;2.13;;;;;;;18.54;49.69;102772.22;5220445;28;20531;-37
2022/07/10 02:56:15;;;;;;;9.20;2.00;;;;;;;18.59;49.77;102777.13;5218253;28;20412;-46
2022/07/10 02:58:48;;;;;;;5.35;1.40;;;;;;;17.96;49.62;102688.00;5217531;28;20427;-40
2022/07/10 03:01:21;;;;;;;5.18;1.92;;;;;;;18.56;49.87;102769.41;5222079;28;20412;-43
2022/07/10 03:03:53;;;;;;;11.35;1.95;;;;;;;18.61;49.93;102770.63;5216783;28;20408;-38
2022/07/10 03:06:26;;;;;;;7.80;2.47;;;;;;;18.59;49.94;102766.41;5206467;28;20506;-39
2022/07/10 03:09:00;;;;;;;5.17;1.83;;;;;;;18.66;49.87;102772.81;5215533;28;21037;-43
2022/07/10 03:11:33;;;;;;;8.48;1.92;;;;;;;18.68;49.86;102773.50;5219763;28;20400;-36
2022/07/10 03:14:06;;;;;;;6.00;1.60;;;;;;;18.68;49.76;102770.84;5203744;28;20499;-43
2022/07/10 03:16:39;;;;;;;8.20;2.20;;;;;;;18.69;49.76;102774.34;5219002;28;20404;-40
2022/07/10 03:19:12;;;;;;;8.40;2.13;;;;;;;18.65;49.81;102765.78;5209585;28;20757;-36
2022/07/10 03:21:47;;;;;;;7.10;2.00;;;;;;;18.64;49.81;102766.75;5216953;28;20578;-37
2022/07/10 03:24:22;;;;;;;11.77;1.85;;;;;;;18.63;49.97;102778.47;5216101;28;20578;-38
2022/07/10 03:26:54;;;;;;;7.85;1.48;;;;;;;18.70;49.92;102763.47;5221718;28;20430;-37
2022/07/10 03:29:27;;;;;;;5.88;2.03;;;;;;;18.70;50.01;102751.91;5217394;28;20454;-36
2022/07/10 03:32:00;;;;;;;5.28;1.42;;;;;;;18.62;50.00;102728.63;5221330;28;20783;-37
2022/07/10 03:34:34;;;;;;;8.45;1.90;;;;;;;18.72;50.03;102748.09;5216247;28;20406;-44
2022/07/10 03:37:07;;;;;;;8.13;2.05;;;;;;;18.66;50.12;102751.41;5221651;28;20926;-37
2022/07/10 03:39:41;;;;;;;8.25;2.58;;;;;;;18.19;50.19;102679.50;5213675;28;20412;-37
2022/07/10 03:42:14;;;;;;;9.60;2.53;;;;;;;18.69;50.25;102750.25;5208368;28;20418;-40
2022/07/10 03:44:46;;;;;;;6.68;1.92;;;;;;;18.71;50.08;102748.28;5211069;28;20430;-35
2022/07/10 03:47:19;;;;;;;7.88;2.10;;;;;;;18.71;50.26;102758.97;5219835;28;20430;-37
2022/07/10 03:49:52;;;;;;;7.85;2.28;;;;;;;18.71;50.26;102754.47;5217040;28;20416;-38
2022/07/10 03:52:25;;;;;;;6.32;1.98;;;;;;;18.71;50.34;102751.78;5213530;28;20775;-37
2022/07/10 03:54:59;;;;;;;8.70;2.30;;;;;;;18.66;50.29;102736.19;5219821;28;20410;-36
2022/07/10 04:00:24;;;;;;;13.75;2.30;;;;;;;18.74;50.39;102746.16;5210971;28;21004;-37
2022/07/10 04:02:57;;;;;;;10.88;2.78;;;;;;;18.75;50.38;102739.78;5214574;28;20503;-38
2022/07/10 04:05:31;;;;;;;9.07;2.03;;;;;;;18.74;50.55;102727.41;5213024;28;20886;-38
2022/07/10 04:08:05;;;;;;;8.73;1.77;;;;;;;18.77;50.60;102731.63;5212577;28;20540;-39
2022/07/10 04:10:39;;;;;;;11.32;2.25;;;;;;;18.75;50.58;102737.13;5219215;28;20403;-39
2022/07/10 04:13:12;;;;;;;10.93;2.17;;;;;;;18.77;50.42;102737.81;5206073;28;20411;-36
2022/07/10 04:15:45;;;;;;;6.68;2.60;;;;;;;18.69;50.64;102740.38;5210348;28;20421;-37
2022/07/10 04:18:17;;;;;;;7.25;2.08;;;;;;;18.81;50.67;102744.50;5204874;28;20464;-36
2022/07/10 04:20:50;;;;;;;11.30;2.22;;;;;;;18.81;50.70;102739.16;5212267;28;20442;-37
2022/07/10 04:23:23;;;;;;;6.95;1.75;;;;;;;18.84;50.64;102744.19;5214511;28;20562;-37
2022/07/10 04:25:58;;;;;;;7.20;1.63;;;;;;;18.84;50.68;102754.91;5215651;28;20929;-42
2022/07/10 04:28:31;;;;;;;7.03;1.80;;;;;;;18.83;50.73;102745.19;5211198;28;20494;-38
2022/07/10 04:31:04;;;;;;;4.80;1.50;;;;;;;18.86;50.72;102744.88;5214808;28;20403;-38
2022/07/10 04:33:37;;;;;;;6.68;1.95;;;;;;;18.86;50.65;102744.88;5215875;28;20582;-41
2022/07/10 04:36:09;;;;;;;7.05;1.83;;;;;;;18.86;50.74;102758.28;5214325;28;20957;-37
2022/07/10 04:38:42;;;;;;;8.93;2.00;;;;;;;18.81;50.88;102741.84;5205673;28;20921;-37
2022/07/10 04:41:16;;;;;;;6.35;1.83;;;;;;;18.80;50.71;102737.50;5205619;28;20425;-37
2022/07/10 04:43:52;;;;;;;9.65;1.90;;;;;;;18.85;50.82;102751.22;5210609;28;20789;-38
2022/07/10 04:46:25;;;;;;;9.13;2.42;;;;;;;18.87;50.72;102751.91;5211761;28;20421;-37
2022/07/10 04:48:58;;;;;;;6.70;1.90;;;;;;;18.88;50.82;102750.91;5217588;28;20826;-44
2022/07/10 04:51:30;;;;;;;10.07;2.13;;;;;;;18.86;50.88;102758.28;5222762;28;20423;-38
2022/07/10 04:54:03;;;;;;;5.20;1.75;;;;;;;18.77;51.01;102740.47;5216189;28;20759;-47
2022/07/10 04:56:37;;;;;;;6.03;1.83;;;;;;;18.84;50.85;102744.19;5215698;28;22168;-38
2022/07/10 04:59:10;;;;;;;8.57;2.13;;;;;;;18.92;50.88;102761.28;5212904;28;20419;-39
2022/07/10 05:01:43;;;;;;;7.77;2.50;;;;;;;18.87;50.90;102746.56;5210867;28;20404;-35
2022/07/10 05:04:15;;;;;;;12.05;2.83;;;;;;;18.93;50.87;102755.81;5212613;28;20417;-37
2022/07/10 05:06:48;;;;;;;7.88;1.98;;;;;;;18.95;50.97;102769.00;5216224;28;20426;-38
2022/07/10 05:09:21;;;;;;;7.70;2.30;;;;;;;18.96;50.99;102751.97;5212604;28;20842;-38
2022/07/10 05:11:55;;;;;;;5.25;1.63;;;;;;;18.93;51.02;102741.56;5217306;28;20420;-40
2022/07/10 05:14:28;;;;;;;6.60;1.80;;;;;;;18.95;51.13;102755.63;5212200;28;20433;-37
2022/07/10 05:17:01;;;;;;;8.50;1.65;;;;;;;18.98;51.19;102748.09;5218779;28;21118;-36
2022/07/10 05:19:34;;;;;;;7.70;2.20;;;;;;;18.98;51.09;102744.59;5215314;28;20773;-37
2022/07/10 05:22:07;;;;;;;10.38;2.20;;;;;;;19.02;51.20;102756.69;5210237;28;20896;-37
2022/07/10 05:24:40;;;;;;;8.70;2.30;;;;;;;19.04;51.28;102744.81;5211597;28;20427;-37
2022/07/10 05:27:16;;;;;;;7.28;1.98;;;;;;;19.05;51.01;102734.94;5213813;28;20408;-35
2022/07/10 05:29:49;;;;;;;6.72;1.50;;;;;;;18.89;51.05;102720.47;5214641;28;20443;-37
2022/07/10 05:32:21;;;;;;;7.05;1.70;;;;;;;19.12;51.17;102746.69;5212296;28;20404;-39
2022/07/10 05:34:54;;;;;;;6.17;1.63;;;;;;;19.09;51.08;102736.31;5222725;28;20469;-38
2022/07/10 05:37:27;;;;;;;9.77;1.80;;;;;;;19.20;50.90;102746.75;5214735;28;20427;-38
2022/07/10 05:39:59;;;;;;;9.57;1.70;;;;;;;19.24;51.00;102745.41;5223967;28;20514;-38
2022/07/10 05:42:34;;;;;;;6.60;2.03;;;;;;;19.31;50.89;102741.09;5226714;28;20411;-37
2022/07/10 05:45:09;;;;;;;6.27;1.63;;;;;;;19.40;50.79;102750.00;5222541;28;20470;-38
2022/07/10 05:47:42;;;;;;;6.22;1.52;;;;;;;19.37;50.75;102711.97;5216434;28;20457;-37
2022/07/10 05:50:14;;;;;;;4.22;1.13;;;;;;;19.58;50.60;102731.13;5227200;28;20741;-38
2022/07/10 05:52:49;;;;;;;6.13;1.48;;;;;;;19.68;50.61;102737.22;5229258;28;20566;-38
2022/07/10 05:55:22;;;;;;;6.80;1.73;;;;;;;19.68;50.62;102744.44;5226810;28;20866;-40
2022/07/10 05:57:56;;;;;;;8.27;2.03;;;;;;;19.66;50.22;102733.84;5214101;28;20520;-39
2022/07/10 06:00:29;;;;;;;7.57;1.48;;;;;;;19.78;50.36;102739.75;5207271;28;20441;-39
2022/07/10 06:03:02;;;;;;;7.50;1.35;;;;;;;19.85;50.22;102747.97;5217506;28;20502;-38
2022/07/10 06:05:34;;;;;;;6.57;1.60;;;;;;;19.95;50.08;102744.16;5222721;28;20420;-38
2022/07/10 06:08:07;;;;;;;5.05;1.58;;;;;;;20.06;50.03;102744.81;5214379;28;20405;-38
2022/07/10 06:10:43;;;;;;;6.53;1.33;;;;;;;20.05;49.88;102727.91;5228241;28;20488;-37
2022/07/10 06:13:17;;;;;;;5.73;1.53;;;;;;;20.25;49.83;102749.88;5221838;28;20403;-39
2022/07/10 06:15:50;;;;;;;6.53;2.00;;;;;;;20.20;49.78;102736.13;5218658;28;20429;-39
2022/07/10 06:18:23;;;;;;;1.98;1.00;;;;;;;20.22;49.84;102745.69;5228494;28;20502;-38
2022/07/10 06:20:56;;;;;;;2.63;1.13;;;;;;;20.21;49.85;102748.53;5227224;28;20505;-37
2022/07/10 06:23:28;;;;;;;7.03;1.52;;;;;;;20.16;49.90;102741.00;5218757;28;20914;-38
2022/07/10 06:26:01;;;;;;;6.13;1.25;;;;;;;20.19;49.85;102737.13;5223310;28;20422;-37
2022/07/10 06:28:39;;;;;;;4.10;1.40;;;;;;;20.06;49.63;102734.94;5225333;28;20744;-36
2022/07/10 06:31:14;;;;;;;3.37;1.33;;;;;;;20.07;49.49;102742.00;5224351;28;20492;-36
2022/07/10 06:33:47;;;;;;;4.43;1.30;;;;;;;20.02;49.69;102741.66;5222889;28;20416;-36
2022/07/10 06:36:20;;;;;;;6.07;1.40;;;;;;;20.09;49.58;102749.84;5219373;28;20428;-37
2022/07/10 06:38:53;;;;;;;6.22;1.42;;;;;;;20.14;49.47;102753.72;5212089;28;20517;-38
2022/07/10 06:41:25;;;;;;;4.13;1.38;;;;;;;20.06;49.50;102744.81;5215811;28;20426;-40
2022/07/10 06:44:00;;;;;;;4.45;1.40;;;;;;;20.17;49.41;102753.41;5210312;28;20795;-37
2022/07/10 06:46:33;;;;;;;6.18;1.52;;;;;;;20.21;49.34;102754.72;5206485;28;22656;-38
2022/07/10 06:49:05;;;;;;;5.85;1.63;;;;;;;20.28;49.30;102760.25;5213621;28;20426;-38
2022/07/10 06:51:38;;;;;;;6.35;1.70;;;;;;;20.24;49.01;102748.19;5212179;28;20420;-37
2022/07/10 06:54:11;;;;;;;4.80;1.40;;;;;;;20.36;49.09;102762.13;5216968;28;20435;-37
2022/07/10 06:56:43;;;;;;;3.63;1.40;;;;;;;20.32;48.97;102739.31;5221781;28;20412;-38
2022/07/10 06:59:18;;;;;;;5.60;1.77;;;;;;;20.60;48.87;102754.09;5222815;28;20423;-36
2022/07/10 07:01:51;;;;;;;6.05;1.45;;;;;;;20.14;48.69;102672.41;5221999;28;20499;-36
2022/07/10 07:04:24;;;;;;;9.73;1.53;;;;;;;20.83;48.63;102753.38;5218409;28;20492;-36
2022/07/10 07:06:56;;;;;;;4.28;1.27;;;;;;;20.80;48.57;102740.28;5209582;28;20425;-38
2022/07/10 07:09:29;;;;;;;6.07;1.20;;;;;;;21.04;48.44;102745.59;5210094;28;20516;-38
2022/07/10 07:12:02;;;;;;;4.18;1.00;;;;;;;21.12;48.18;102756.34;5208874;28;20419;-38
2022/07/10 07:14:36;;;;;;;5.43;1.58;;;;;;;21.23;47.91;102749.72;5194626;28;20409;-37
2022/07/10 07:17:11;;;;;;;3.08;1.30;;;;;;;21.38;47.88;102755.25;5205719;28;20456;-37
2022/07/10 07:25:21;;;;;;;2.70;1.10;;;;;;;21.70;47.38;102761.47;5220868;28;20420;-38
2022/07/10 07:27:53;;;;;;;4.15;1.27;;;;;;;21.61;47.20;102753.44;5208088;28;20490;-38
2022/07/10 07:30:28;;;;;;;2.35;1.10;;;;;;;21.56;47.21;102746.94;5215993;28;20439;-37
2022/07/10 07:33:01;;;;;;;4.60;1.30;;;;;;;21.60;47.27;102762.53;5223451;28;20547;-38
2022/07/10 07:35:34;;;;;;;4.60;1.58;;;;;;;21.70;47.00;102761.47;5226989;28;20529;-38
2022/07/10 07:38:06;;;;;;;3.03;1.13;;;;;;;21.78;46.94;102756.06;5222676;28;20460;-37
2022/07/10 07:40:39;;;;;;;3.75;1.40;;;;;;;21.83;46.80;102757.19;5219548;28;20821;-37
2022/07/10 07:43:12;;;;;;;3.97;1.55;;;;;;;21.89;46.61;102758.31;5217884;28;20404;-38
2022/07/10 07:45:47;;;;;;;5.70;1.58;;;;;;;21.99;46.44;102756.25;5222217;28;20517;-37
2022/07/10 07:48:20;;;;;;;3.85;1.27;;;;;;;22.13;46.54;102753.78;5200685;28;20471;-38
2022/07/10 07:50:53;;;;;;;5.22;1.60;;;;;;;22.23;46.24;102740.94;5180462;28;20430;-38
2022/07/10 07:53:26;;;;;;;4.57;1.33;;;;;;;22.49;46.04;102762.94;5217593;28;20421;-38
2022/07/10 07:55:59;;;;;;;4.80;1.15;;;;;;;22.60;46.03;102752.75;5222788;28;20419;-38
2022/07/10 07:58:32;;;;;;;4.70;1.10;;;;;;;22.88;45.79;102756.47;5221186;28;20421;-37
2022/07/10 08:01:06;;;;;;;5.13;1.48;;;;;;;23.12;45.52;102759.97;5221402;28;20475;-37
2022/07/10 08:03:39;;;;;;;3.60;1.23;;;;;;;23.36;45.30;102758.84;5225350;28;20475;-38
2022/07/10 08:06:12;;;;;;;2.83;1.23;;;;;;;23.60;45.13;102757.66;5219181;28;20650;-41
2022/07/10 08:08:45;;;;;;;4.53;1.30;;;;;;;23.73;44.86;102754.34;5208605;28;20454;-40
2022/07/10 08:11:18;;;;;;;3.60;1.42;;;;;;;23.79;44.69;102737.38;5214963;28;20428;-42
2022/07/10 08:13:50;;;;;;;5.30;1.50;;;;;;;23.92;44.52;102741.03;5208220;28;20405;-39
2022/07/10 08:16:25;;;;;;;4.47;1.27;;;;;;;23.99;44.24;102734.88;5208066;28;20424;-41
2022/07/10 08:18:57;;;;;;;3.15;1.10;;;;;;;24.32;44.03;102738.69;5196596;28;20421;-39
2022/07/10 08:21:31;;;;;;;4.28;1.00;;;;;;;24.62;43.87;102752.03;5201365;28;20424;-41
2022/07/10 08:24:05;;;;;;;3.00;1.15;;;;;;;24.72;43.36;102744.44;5201794;28;20421;-46
2022/07/10 08:26:37;;;;;;;2.72;1.40;;;;;;;24.74;43.34;102745.06;5201732;28;20633;-42
2022/07/10 08:29:10;;;;;;;6.00;1.35;;;;;;;24.75;43.19;102735.94;5205282;28;20418;-39
2022/07/10 08:31:45;;;;;;;3.63;0.95;;;;;;;24.92;43.13;102749.13;5199494;28;20416;-39
2022/07/10 08:34:17;;;;;;;2.95;0.90;;;;;;;24.91;43.00;102742.06;5210138;28;20499;-40
2022/07/10 08:36:50;;;;;;;3.95;1.23;;;;;;;24.80;42.87;102730.75;5207223;28;20440;-39
2022/07/10 08:39:23;;;;;;;2.92;0.80;;;;;;;24.73;42.98;102735.28;5209674;28;20415;-42
2022/07/10 08:41:56;;;;;;;3.78;1.00;;;;;;;24.70;42.99;102735.69;5205912;28;20419;-38
2022/07/10 08:44:29;;;;;;;3.33;1.27;;;;;;;24.72;42.81;102722.81;5203418;28;20432;-40
2022/07/10 08:47:05;;;;;;;3.88;1.00;;;;;;;24.91;42.48;102737.47;5188643;28;20453;-40
2022/07/10 08:49:39;;;;;;;2.53;0.93;;;;;;;24.95;42.47;102729.81;5201713;28;20443;-39
2022/07/10 08:52:24;;;;;;;6.13;1.33;;;;;;;24.85;42.61;102736.41;5201221;28;20784;-40
2022/07/10 08:54:57;;;;;;;4.68;1.27;;;;;;;24.91;42.41;102758.28;5195647;28;20789;-39
2022/07/10 08:57:31;;;;;;;2.40;0.93;;;;;;;24.92;42.43;102739.13;5202270;28;20413;-39
2022/07/10 09:00:05;;;;;;;5.28;1.10;;;;;;;24.91;42.17;102733.94;5192437;28;21045;-45
2022/07/10 09:02:39;;;;;;;4.18;1.10;;;;;;;25.03;42.06;102733.19;5201473;28;20432;-38
2022/07/10 09:05:11;;;;;;;3.83;1.30;;;;;;;25.09;41.95;102734.25;5204815;28;20896;-42
2022/07/10 09:07:45;;;;;;;3.97;1.30;;;;;;;25.18;41.79;102741.19;5195600;28;20406;-40
2022/07/10 09:10:20;;;;;;;3.38;1.15;;;;;;;25.13;41.59;102730.13;5205900;28;20916;-39
2022/07/10 09:12:56;;;;;;;3.20;1.38;;;;;;;25.22;41.67;102739.75;5202214;28;20453;-39
2022/07/10 09:15:32;;;;;;;3.88;1.20;;;;;;;25.17;41.49;102720.56;5204317;28;20846;-42
2022/07/10 09:18:07;;;;;;;6.15;1.45;;;;;;;25.38;41.31;102733.16;5203310;28;20508;-43
2022/07/10 09:20:43;;;;;;;4.35;1.25;;;;;;;25.44;41.12;102729.63;5206767;28;20417;-38
2022/07/10 09:23:18;;;;;;;3.85;1.20;;;;;;;25.57;40.86;102728.84;5202851;28;20414;-38
2022/07/10 09:25:54;;;;;;;2.53;0.85;;;;;;;25.77;40.60;102727.00;5209924;28;20421;-38
2022/07/10 09:28:27;;;;;;;2.17;0.90;;;;;;;26.05;40.49;102727.94;5215010;28;20425;-39
2022/07/10 09:31:00;;;;;;;4.65;1.40;;;;;;;25.81;40.02;102678.75;5198336;28;20425;-39
2022/07/10 09:33:37;;;;;;;8.65;1.38;;;;;;;26.32;39.83;102709.78;5214319;28;20404;-41
2022/07/10 09:36:14;;;;;;;3.15;0.98;;;;;;;26.28;39.84;102698.53;5221100;28;20432;-46
2022/07/10 09:38:57;;;;;;;2.55;0.90;;;;;;;26.33;39.46;102714.16;5217825;28;20414;-38
2022/07/10 09:41:32;;;;;;;3.57;1.20;;;;;;;26.43;39.39;102714.56;5225500;28;20420;-38
2022/07/10 09:44:08;;;;;;;3.58;1.10;;;;;;;26.46;39.23;102708.72;5202752;28;20757;-41
2022/07/10 09:46:41;;;;;;;3.42;1.23;;;;;;;26.52;39.05;102710.63;5187305;28;20433;-37
2022/07/10 09:49:16;;;;;;;7.25;1.40;;;;;;;26.54;39.01;102716.69;5202434;28;20413;-41
2022/07/10 09:51:49;;;;;;;3.63;1.42;;;;;;;26.60;38.77;102714.97;5207061;28;20500;-41
2022/07/10 09:54:22;;;;;;;4.32;1.30;;;;;;;26.60;38.67;102688.75;5209304;28;20433;-38
2022/07/10 09:56:56;;;;;;;5.90;1.92;;;;;;;26.81;38.37;102706.59;5206093;28;20426;-38
2022/07/10 09:59:33;;;;;;;4.72;1.52;;;;;;;26.93;38.00;102698.63;5218170;28;20423;-39
2022/07/10 10:02:08;;;;;;;8.93;1.55;;;;;;;27.15;37.88;102706.50;5214016;28;20510;-41
2022/07/10 10:04:44;;;;;;;2.63;0.90;;;;;;;27.35;37.67;102701.84;5208932;28;20410;-38
2022/07/10 10:07:21;;;;;;;3.67;1.25;;;;;;;27.36;37.36;102687.22;5208767;28;20401;-40
2022/07/10 10:09:56;;;;;;;2.47;1.17;;;;;;;27.58;37.09;102701.28;5210311;28;20512;-38
2022/07/10 10:12:36;;;;;;;5.47;1.98;;;;;;;27.74;36.94;102713.47;5209142;28;20491;-44
2022/07/10 10:15:12;;;;;;;8.27;1.90;;;;;;;27.90;36.76;102702.09;5207790;28;20622;-39
2022/07/10 10:17:46;;;;;;;3.57;1.27;;;;;;;28.04;36.45;102703.69;5190496;28;20903;-40
2022/07/10 10:20:41;;;;;;;9.63;1.63;;;;;;;28.14;36.40;102691.47;5160566;28;20430;-39
2022/07/10 10:23:17;;;;;;;7.15;2.22;;;;;;;28.20;36.18;102704.19;5216450;28;20768;-39
2022/07/10 10:25:51;;;;;;;4.00;1.92;;;;;;;28.27;36.01;102700.31;5227953;28;20416;-39
2022/07/10 10:28:26;;;;;;;9.52;1.80;;;;;;;28.41;35.91;102706.50;5226071;28;20462;-39
2022/07/10 10:31:01;;;;;;;5.25;1.70;;;;;;;28.47;35.62;102711.06;5227334;28;20412;-40
2022/07/10 10:33:46;;;;;;;5.90;1.50;;;;;;;28.65;35.46;102704.81;5210282;28;20402;-43
2022/07/10 10:36:48;;;;;;;8.55;2.53;;;;;;;28.73;35.13;102692.78;5204998;28;20472;-41
2022/07/10 10:39:21;;;;;;;4.97;1.50;;;;;;;28.67;35.28;102693.69;5199218;28;20414;-38
2022/07/10 10:41:55;;;;;;;7.13;1.70;;;;;;;28.61;35.11;102686.44;5212564;28;20437;-45
2022/07/10 10:44:31;;;;;;;4.38;1.40;;;;;;;28.83;34.99;102693.09;5207520;28;20479;-38
2022/07/10 10:47:07;;;;;;;3.03;1.13;;;;;;;28.80;34.76;102669.06;5206072;28;20413;-38
2022/07/10 10:49:59;;;;;;;4.32;1.20;;;;;;;28.99;34.71;102696.25;5207848;28;20425;-39
2022/07/10 10:52:33;;;;;;;6.35;1.40;;;;;;;29.16;34.49;102683.72;5207817;28;20421;-38
2022/07/10 10:55:12;;;;;;;6.83;1.50;;;;;;;29.27;34.38;102684.84;5208540;28;20433;-38
2022/07/10 10:57:47;;;;;;;9.93;1.90;;;;;;;29.24;34.33;102667.09;5203337;28;20409;-41
2022/07/10 11:00:41;;;;;;;4.43;1.47;;;;;;;29.39;34.30;102681.09;5209156;28;20494;-37
2022/07/10 11:03:23;;;;;;;3.90;1.75;;;;;;;29.41;34.15;102687.13;5209297;28;20412;-39
2022/07/10 11:05:56;;;;;;;3.40;1.40;;;;;;;29.51;34.13;102691.19;5213086;28;20425;-38
2022/07/10 11:08:43;;;;;;;6.13;1.23;;;;;;;29.61;33.80;102692.31;5215678;28;20412;-38
2022/07/10 11:11:40;;;;;;;10.00;1.90;;;;;;;29.65;33.79;102684.50;5201692;28;20939;-39
2022/07/10 11:14:14;;;;;;;4.63;1.30;;;;;;;29.57;33.74;102661.13;5202015;28;20560;-37
2022/07/10 11:16:49;;;;;;;5.10;1.63;;;;;;;29.84;33.51;102677.91;5217219;28;20964;-38
2022/07/10 11:19:24;;;;;;;3.40;1.45;;;;;;;29.48;33.42;102612.69;5210948;28;20557;-40
2022/07/10 11:22:50;;;;;;;4.03;1.27;;;;;;;29.92;33.26;102686.78;5214165;28;20446;-45
2022/07/10 11:25:44;;;;;;;2.42;1.08;;;;;;;30.03;33.16;102672.38;5216026;28;20447;-43
2022/07/10 11:28:23;;;;;;;6.57;1.70;;;;;;;30.22;32.81;102682.09;5207817;28;20418;-42
2022/07/10 11:30:56;;;;;;;4.25;1.40;;;;;;;30.44;32.75;102678.78;5214886;28;20431;-47
2022/07/10 11:33:29;;;;;;;4.07;1.35;;;;;;;30.51;32.68;102674.03;5212129;28;20420;-44
2022/07/10 11:36:13;;;;;;;5.68;1.88;;;;;;;30.57;32.49;102681.28;5214076;28;20425;-45
2022/07/10 11:38:46;;;;;;;5.50;1.52;;;;;;;30.52;32.38;102660.16;5204864;28;20498;-47
2022/07/10 11:41:22;;;;;;;5.60;2.10;;;;;;;30.63;32.55;102663.09;5212383;28;20471;-41
2022/07/10 11:43:57;;;;;;;4.68;1.35;;;;;;;30.68;32.26;102672.22;5218951;28;20412;-43
2022/07/10 11:46:33;;;;;;;4.28;1.30;;;;;;;30.60;32.47;102678.06;5214688;28;20416;-48
2022/07/10 11:49:08;;;;;;;5.28;1.67;;;;;;;30.47;32.59;102676.41;5212472;28;20400;-40
2022/07/10 11:51:44;;;;;;;2.70;1.00;;;;;;;30.35;32.68;102675.59;5209416;28;20409;-41
2022/07/10 11:54:18;;;;;;;4.33;1.50;;;;;;;29.76;32.56;102590.28;5211570;28;20738;-50
2022/07/10 11:56:55;;;;;;;3.72;1.77;;;;;;;30.24;32.57;102666.34;5214179;28;20503;-41
2022/07/10 11:59:29;;;;;;;4.20;1.33;;;;;;;30.17;32.58;102660.19;5219278;28;20430;-41
2022/07/10 12:02:01;;;;;;;4.03;1.40;;;;;;;30.07;32.73;102665.38;5216972;28;20465;-41
2022/07/10 12:04:34;;;;;;;4.53;1.85;;;;;;;30.03;32.67;102662.28;5214510;28;20543;-40
2022/07/10 12:07:07;;;;;;;5.68;1.63;;;;;;;29.85;32.88;102656.94;5223726;28;20455;-52